sensor_id;sensor_type;location;lat;lon;timestamp;temperature;humidity
20891;DHT22;10605;52.968;8.844;2022-07-01T00:01:45;19.20;99.90
20891;DHT22;10605;52.968;8.844;2022-07-01T00:04:13;19.20;99.90
20891;DHT22;10605;52.968;8.844;2022-07-01T00:06:38;19.30;99.90
20891;DHT22;10605;52.968;8.844;2022-07-01T00:09:04;19.20;99.90
20891;DHT22;10605;52.968;8.844;2022-07-01T00:11:31;19.20;99.90
20891;DHT22;10605;52.968;8.844;2022-07-01T00:13:57;19.20;99.90
20891;DHT22;10605;52.968;8.844;2022-07-01T00:16:22;19.20;99.90
20891;DHT22;10605;52.968;8.844;2022-07-01T00:18:48;19.30;99.90
20891;DHT22;10605;52.968;8.844;2022-07-01T00:21:14;19.30;99.90
20891;DHT22;10605;52.968;8.844;2022-07-01T00:23:41;19.30;99.90
20891;DHT22;10605;52.968;8.844;2022-07-01T00:26:07;19.40;99.90
20891;DHT22;10605;52.968;8.844;2022-07-01T00:28:32;19.30;99.90
20891;DHT22;10605;52.968;8.844;2022-07-01T00:30:58;19.30;99.90
20891;DHT22;10605;52.968;8.844;2022-07-01T00:33:23;19.30;99.90
20891;DHT22;10605;52.968;8.844;2022-07-01T00:35:49;19.30;99.90
20891;DHT22;10605;52.968;8.844;2022-07-01T00:38:15;19.20;99.90
20891;DHT22;10605;52.968;8.844;2022-07-01T00:40:41;19.20;99.90
20891;DHT22;10605;52.968;8.844;2022-07-01T00:43:06;19.10;99.90
20891;DHT22;10605;52.968;8.844;2022-07-01T00:45:32;19.10;99.90
20891;DHT22;10605;52.968;8.844;2022-07-01T00:47:58;19.10;99.90
20891;DHT22;10605;52.968;8.844;2022-07-01T00:50:24;19.10;99.90
20891;DHT22;10605;52.968;8.844;2022-07-01T00:52:50;19.10;99.90
20891;DHT22;10605;52.968;8.844;2022-07-01T00:55:16;19.00;99.90
20891;DHT22;10605;52.968;8.844;2022-07-01T00:57:43;18.90;99.90
20891;DHT22;10605;52.968;8.844;2022-07-01T01:00:10;18.90;99.90
20891;DHT22;10605;52.968;8.844;2022-07-01T01:02:36;18.90;99.90
20891;DHT22;10605;52.968;8.844;2022-07-01T01:05:03;18.80;99.90
20891;DHT22;10605;52.968;8.844;2022-07-01T01:07:31;18.70;99.90
20891;DHT22;10605;52.968;8.844;2022-07-01T01:10:01;18.80;99.90
20891;DHT22;10605;52.968;8.844;2022-07-01T01:12:30;18.80;99.90
20891;DHT22;10605;52.968;8.844;2022-07-01T01:14:56;18.80;99.90
20891;DHT22;10605;52.968;8.844;2022-07-01T01:17:23;18.80;99.90
20891;DHT22;10605;52.968;8.844;2022-07-01T01:19:50;18.70;99.90
20891;DHT22;10605;52.968;8.844;2022-07-01T01:22:17;18.50;99.90
20891;DHT22;10605;52.968;8.844;2022-07-01T01:24:44;18.60;99.90
20891;DHT22;10605;52.968;8.844;2022-07-01T01:27:10;18.40;99.90
20891;DHT22;10605;52.968;8.844;2022-07-01T01:29:36;18.30;99.90
20891;DHT22;10605;52.968;8.844;2022-07-01T01:32:04;18.20;99.90
20891;DHT22;10605;52.968;8.844;2022-07-01T01:34:31;18.20;99.90
20891;DHT22;10605;52.968;8.844;2022-07-01T01:36:57;18.10;99.90
20891;DHT22;10605;52.968;8.844;2022-07-01T01:39:23;18.10;99.90
20891;DHT22;10605;52.968;8.844;2022-07-01T01:41:49;18.10;99.90
20891;DHT22;10605;52.968;8.844;2022-07-01T01:44:14;18.20;99.90
20891;DHT22;10605;52.968;8.844;2022-07-01T01:46:40;18.10;99.90
20891;DHT22;10605;52.968;8.844;2022-07-01T01:49:07;18.10;99.90
20891;DHT22;10605;52.968;8.844;2022-07-01T01:51:33;18.00;99.90
20891;DHT22;10605;52.968;8.844;2022-07-01T01:53:59;17.90;99.90
20891;DHT22;10605;52.968;8.844;2022-07-01T01:56:25;17.80;99.90
20891;DHT22;10605;52.968;8.844;2022-07-01T01:58:51;17.80;99.90
20891;DHT22;10605;52.968;8.844;2022-07-01T02:01:18;17.80;99.90
20891;DHT22;10605;52.968;8.844;2022-07-01T02:03:45;17.70;99.90
20891;DHT22;10605;52.968;8.844;2022-07-01T02:06:13;17.50;99.90
20891;DHT22;10605;52.968;8.844;2022-07-01T02:08:39;17.40;99.90
20891;DHT22;10605;52.968;8.844;2022-07-01T02:11:06;17.40;99.90
20891;DHT22;10605;52.968;8.844;2022-07-01T02:13:32;17.30;99.90
20891;DHT22;10605;52.968;8.844;2022-07-01T02:15:57;17.20;99.90
20891;DHT22;10605;52.968;8.844;2022-07-01T02:18:23;17.10;99.90
20891;DHT22;10605;52.968;8.844;2022-07-01T02:20:49;17.10;99.90
20891;DHT22;10605;52.968;8.844;2022-07-01T02:23:15;17.00;99.90
20891;DHT22;10605;52.968;8.844;2022-07-01T02:25:41;17.00;99.90
20891;DHT22;10605;52.968;8.844;2022-07-01T02:28:08;17.00;99.90
20891;DHT22;10605;52.968;8.844;2022-07-01T02:30:34;17.00;99.90
20891;DHT22;10605;52.968;8.844;2022-07-01T02:33:05;17.00;99.90
20891;DHT22;10605;52.968;8.844;2022-07-01T02:35:35;17.00;99.90
20891;DHT22;10605;52.968;8.844;2022-07-01T02:38:02;16.90;99.90
20891;DHT22;10605;52.968;8.844;2022-07-01T02:40:28;16.80;99.90
20891;DHT22;10605;52.968;8.844;2022-07-01T02:42:53;16.70;99.90
20891;DHT22;10605;52.968;8.844;2022-07-01T02:45:19;16.80;99.90
20891;DHT22;10605;52.968;8.844;2022-07-01T02:47:44;16.70;99.90
20891;DHT22;10605;52.968;8.844;2022-07-01T02:50:12;16.80;99.90
20891;DHT22;10605;52.968;8.844;2022-07-01T02:52:39;16.80;99.90
20891;DHT22;10605;52.968;8.844;2022-07-01T02:55:06;16.80;99.90
20891;DHT22;10605;52.968;8.844;2022-07-01T02:57:32;16.90;99.90
20891;DHT22;10605;52.968;8.844;2022-07-01T02:59:58;16.70;99.90
20891;DHT22;10605;52.968;8.844;2022-07-01T03:02:24;16.70;99.90
20891;DHT22;10605;52.968;8.844;2022-07-01T03:04:51;16.70;99.90
20891;DHT22;10605;52.968;8.844;2022-07-01T03:07:18;16.60;99.90
20891;DHT22;10605;52.968;8.844;2022-07-01T03:09:44;16.50;99.90
20891;DHT22;10605;52.968;8.844;2022-07-01T03:12:10;16.50;99.90
20891;DHT22;10605;52.968;8.844;2022-07-01T03:15:00;16.50;99.90
20891;DHT22;10605;52.968;8.844;2022-07-01T03:17:28;16.50;99.90
20891;DHT22;10605;52.968;8.844;2022-07-01T03:19:54;16.50;99.90
20891;DHT22;10605;52.968;8.844;2022-07-01T03:22:20;16.60;99.90
20891;DHT22;10605;52.968;8.844;2022-07-01T03:24:49;16.50;99.90
20891;DHT22;10605;52.968;8.844;2022-07-01T03:27:16;16.50;99.90
20891;DHT22;10605;52.968;8.844;2022-07-01T03:29:42;16.60;99.90
20891;DHT22;10605;52.968;8.844;2022-07-01T03:32:09;16.60;99.90
20891;DHT22;10605;52.968;8.844;2022-07-01T03:34:39;16.70;99.90
20891;DHT22;10605;52.968;8.844;2022-07-01T03:37:06;16.70;99.90
20891;DHT22;10605;52.968;8.844;2022-07-01T03:39:33;16.70;99.90
20891;DHT22;10605;52.968;8.844;2022-07-01T03:41:59;16.80;99.90
20891;DHT22;10605;52.968;8.844;2022-07-01T03:44:25;16.80;99.90
20891;DHT22;10605;52.968;8.844;2022-07-01T03:46:50;16.80;99.90
20891;DHT22;10605;52.968;8.844;2022-07-01T03:49:16;16.70;99.90
20891;DHT22;10605;52.968;8.844;2022-07-01T03:51:42;16.60;99.90
20891;DHT22;10605;52.968;8.844;2022-07-01T03:54:07;16.60;99.90
20891;DHT22;10605;52.968;8.844;2022-07-01T03:56:51;16.60;99.90
20891;DHT22;10605;52.968;8.844;2022-07-01T03:59:17;16.60;99.90
20891;DHT22;10605;52.968;8.844;2022-07-01T04:01:43;16.50;99.90
20891;DHT22;10605;52.968;8.844;2022-07-01T04:04:08;16.50;99.90
20891;DHT22;10605;52.968;8.844;2022-07-01T04:06:34;16.50;99.90
20891;DHT22;10605;52.968;8.844;2022-07-01T04:09:01;16.50;99.90
20891;DHT22;10605;52.968;8.844;2022-07-01T04:11:27;16.40;99.90
20891;DHT22;10605;52.968;8.844;2022-07-01T04:13:53;16.30;99.90
20891;DHT22;10605;52.968;8.844;2022-07-01T04:16:20;16.30;99.90
20891;DHT22;10605;52.968;8.844;2022-07-01T04:18:46;16.20;99.90
20891;DHT22;10605;52.968;8.844;2022-07-01T04:21:12;16.20;99.90
20891;DHT22;10605;52.968;8.844;2022-07-01T04:23:57;16.20;99.90
20891;DHT22;10605;52.968;8.844;2022-07-01T04:26:23;16.20;99.90
20891;DHT22;10605;52.968;8.844;2022-07-01T04:28:50;16.30;99.90
20891;DHT22;10605;52.968;8.844;2022-07-01T04:31:16;16.20;99.90
20891;DHT22;10605;52.968;8.844;2022-07-01T04:33:42;16.30;99.90
20891;DHT22;10605;52.968;8.844;2022-07-01T04:36:07;16.30;99.90
20891;DHT22;10605;52.968;8.844;2022-07-01T04:38:33;16.40;99.90
20891;DHT22;10605;52.968;8.844;2022-07-01T04:40:59;16.50;99.90
20891;DHT22;10605;52.968;8.844;2022-07-01T04:43:43;16.60;99.90
20891;DHT22;10605;52.968;8.844;2022-07-01T04:46:09;16.60;99.90
20891;DHT22;10605;52.968;8.844;2022-07-01T04:48:34;16.60;99.90
20891;DHT22;10605;52.968;8.844;2022-07-01T04:51:00;16.60;99.90
20891;DHT22;10605;52.968;8.844;2022-07-01T04:53:25;16.60;99.90
20891;DHT22;10605;52.968;8.844;2022-07-01T04:55:51;16.60;99.90
20891;DHT22;10605;52.968;8.844;2022-07-01T04:58:17;16.50;99.90
20891;DHT22;10605;52.968;8.844;2022-07-01T05:00:42;16.40;99.90
20891;DHT22;10605;52.968;8.844;2022-07-01T05:03:08;16.40;99.90
20891;DHT22;10605;52.968;8.844;2022-07-01T05:05:34;16.40;99.90
20891;DHT22;10605;52.968;8.844;2022-07-01T05:08:00;16.40;99.90
20891;DHT22;10605;52.968;8.844;2022-07-01T05:10:25;16.50;99.90
20891;DHT22;10605;52.968;8.844;2022-07-01T05:12:51;16.60;99.90
20891;DHT22;10605;52.968;8.844;2022-07-01T05:15:17;16.50;99.90
20891;DHT22;10605;52.968;8.844;2022-07-01T05:17:42;16.50;99.90
20891;DHT22;10605;52.968;8.844;2022-07-01T05:20:27;16.30;99.90
20891;DHT22;10605;52.968;8.844;2022-07-01T05:23:11;16.30;99.90
20891;DHT22;10605;52.968;8.844;2022-07-01T05:25:37;16.40;99.90
20891;DHT22;10605;52.968;8.844;2022-07-01T05:28:02;16.60;99.90
20891;DHT22;10605;52.968;8.844;2022-07-01T05:30:30;16.70;99.90
20891;DHT22;10605;52.968;8.844;2022-07-01T05:32:56;16.90;99.90
20891;DHT22;10605;52.968;8.844;2022-07-01T05:35:22;16.90;99.90
20891;DHT22;10605;52.968;8.844;2022-07-01T05:37:47;17.20;99.90
20891;DHT22;10605;52.968;8.844;2022-07-01T05:40:13;17.40;99.90
20891;DHT22;10605;52.968;8.844;2022-07-01T05:42:39;17.50;99.90
20891;DHT22;10605;52.968;8.844;2022-07-01T05:45:05;17.50;99.90
20891;DHT22;10605;52.968;8.844;2022-07-01T05:47:30;17.60;99.90
20891;DHT22;10605;52.968;8.844;2022-07-01T05:49:56;17.40;99.90
20891;DHT22;10605;52.968;8.844;2022-07-01T05:52:25;17.40;99.90
20891;DHT22;10605;52.968;8.844;2022-07-01T05:54:50;17.40;99.90
20891;DHT22;10605;52.968;8.844;2022-07-01T05:57:16;17.40;99.90
20891;DHT22;10605;52.968;8.844;2022-07-01T05:59:42;17.50;99.90
20891;DHT22;10605;52.968;8.844;2022-07-01T06:02:10;17.70;99.90
20891;DHT22;10605;52.968;8.844;2022-07-01T06:04:35;17.60;99.90
20891;DHT22;10605;52.968;8.844;2022-07-01T06:07:01;17.60;99.90
20891;DHT22;10605;52.968;8.844;2022-07-01T06:09:27;17.70;99.90
20891;DHT22;10605;52.968;8.844;2022-07-01T06:11:52;17.70;99.90
20891;DHT22;10605;52.968;8.844;2022-07-01T06:14:18;17.70;99.90
20891;DHT22;10605;52.968;8.844;2022-07-01T06:16:44;17.60;99.90
20891;DHT22;10605;52.968;8.844;2022-07-01T06:19:09;17.60;99.90
20891;DHT22;10605;52.968;8.844;2022-07-01T06:21:35;17.60;99.90
20891;DHT22;10605;52.968;8.844;2022-07-01T06:24:00;17.60;99.90
20891;DHT22;10605;52.968;8.844;2022-07-01T06:26:26;17.50;99.90
20891;DHT22;10605;52.968;8.844;2022-07-01T06:28:52;17.70;99.90
20891;DHT22;10605;52.968;8.844;2022-07-01T06:31:17;17.80;99.90
20891;DHT22;10605;52.968;8.844;2022-07-01T06:33:43;17.90;99.90
20891;DHT22;10605;52.968;8.844;2022-07-01T06:36:09;18.00;99.90
20891;DHT22;10605;52.968;8.844;2022-07-01T06:38:35;17.80;99.90
20891;DHT22;10605;52.968;8.844;2022-07-01T06:41:01;17.70;99.90
20891;DHT22;10605;52.968;8.844;2022-07-01T06:43:45;17.60;99.90
20891;DHT22;10605;52.968;8.844;2022-07-01T06:46:14;17.70;99.90
20891;DHT22;10605;52.968;8.844;2022-07-01T06:48:39;17.90;99.90
20891;DHT22;10605;52.968;8.844;2022-07-01T06:51:05;17.90;99.90
20891;DHT22;10605;52.968;8.844;2022-07-01T06:53:31;18.10;99.90
20891;DHT22;10605;52.968;8.844;2022-07-01T06:55:57;18.00;99.90
20891;DHT22;10605;52.968;8.844;2022-07-01T06:58:23;17.80;99.90
20891;DHT22;10605;52.968;8.844;2022-07-01T07:00:48;17.80;99.90
20891;DHT22;10605;52.968;8.844;2022-07-01T07:03:14;17.60;99.90
20891;DHT22;10605;52.968;8.844;2022-07-01T07:05:40;17.60;99.90
20891;DHT22;10605;52.968;8.844;2022-07-01T07:08:05;17.80;99.90
20891;DHT22;10605;52.968;8.844;2022-07-01T07:10:31;17.90;99.90
20891;DHT22;10605;52.968;8.844;2022-07-01T07:12:56;17.90;99.90
20891;DHT22;10605;52.968;8.844;2022-07-01T07:15:22;18.00;99.90
20891;DHT22;10605;52.968;8.844;2022-07-01T07:17:48;18.20;99.90
20891;DHT22;10605;52.968;8.844;2022-07-01T07:20:13;18.40;99.90
20891;DHT22;10605;52.968;8.844;2022-07-01T07:22:39;18.70;99.90
20891;DHT22;10605;52.968;8.844;2022-07-01T07:25:05;18.90;99.90
20891;DHT22;10605;52.968;8.844;2022-07-01T07:27:31;19.00;99.90
20891;DHT22;10605;52.968;8.844;2022-07-01T07:29:56;19.20;99.90
20891;DHT22;10605;52.968;8.844;2022-07-01T07:32:22;19.40;99.90
20891;DHT22;10605;52.968;8.844;2022-07-01T07:34:47;19.60;99.90
20891;DHT22;10605;52.968;8.844;2022-07-01T07:37:13;19.80;99.90
20891;DHT22;10605;52.968;8.844;2022-07-01T07:39:39;19.60;99.90
20891;DHT22;10605;52.968;8.844;2022-07-01T07:42:04;19.50;99.90
20891;DHT22;10605;52.968;8.844;2022-07-01T07:44:31;19.70;99.90
20891;DHT22;10605;52.968;8.844;2022-07-01T07:46:57;19.50;99.90
20891;DHT22;10605;52.968;8.844;2022-07-01T07:49:23;18.90;99.90
20891;DHT22;10605;52.968;8.844;2022-07-01T07:51:49;18.60;99.90
20891;DHT22;10605;52.968;8.844;2022-07-01T07:54:15;18.50;99.90
20891;DHT22;10605;52.968;8.844;2022-07-01T07:56:41;18.70;99.90
20891;DHT22;10605;52.968;8.844;2022-07-01T07:59:07;18.90;99.90
20891;DHT22;10605;52.968;8.844;2022-07-01T08:01:32;19.00;99.90
20891;DHT22;10605;52.968;8.844;2022-07-01T08:03:58;18.90;99.90
20891;DHT22;10605;52.968;8.844;2022-07-01T08:06:24;19.10;99.90
20891;DHT22;10605;52.968;8.844;2022-07-01T08:08:50;19.30;99.90
20891;DHT22;10605;52.968;8.844;2022-07-01T08:11:16;19.20;99.90
20891;DHT22;10605;52.968;8.844;2022-07-01T08:13:42;19.00;99.90
20891;DHT22;10605;52.968;8.844;2022-07-01T08:16:09;18.90;99.90
20891;DHT22;10605;52.968;8.844;2022-07-01T08:18:34;18.70;99.90
20891;DHT22;10605;52.968;8.844;2022-07-01T08:21:00;18.60;99.90
20891;DHT22;10605;52.968;8.844;2022-07-01T08:23:26;18.50;99.90
20891;DHT22;10605;52.968;8.844;2022-07-01T08:25:51;18.60;99.90
20891;DHT22;10605;52.968;8.844;2022-07-01T08:28:17;18.90;99.90
20891;DHT22;10605;52.968;8.844;2022-07-01T08:30:43;19.20;99.90
20891;DHT22;10605;52.968;8.844;2022-07-01T08:33:10;19.20;99.90
20891;DHT22;10605;52.968;8.844;2022-07-01T08:35:36;19.20;99.90
20891;DHT22;10605;52.968;8.844;2022-07-01T08:38:02;19.50;99.90
20891;DHT22;10605;52.968;8.844;2022-07-01T08:40:29;19.50;99.90
20891;DHT22;10605;52.968;8.844;2022-07-01T08:43:03;20.10;99.90
20891;DHT22;10605;52.968;8.844;2022-07-01T08:45:31;20.40;99.90
20891;DHT22;10605;52.968;8.844;2022-07-01T08:47:58;20.60;99.90
20891;DHT22;10605;52.968;8.844;2022-07-01T08:50:33;20.50;99.90
20891;DHT22;10605;52.968;8.844;2022-07-01T08:52:59;20.30;99.90
20891;DHT22;10605;52.968;8.844;2022-07-01T08:55:25;19.90;99.90
20891;DHT22;10605;52.968;8.844;2022-07-01T08:57:51;19.70;99.90
20891;DHT22;10605;52.968;8.844;2022-07-01T09:00:17;19.50;99.90
20891;DHT22;10605;52.968;8.844;2022-07-01T09:03:02;19.30;99.90
20891;DHT22;10605;52.968;8.844;2022-07-01T09:05:30;19.10;99.90
20891;DHT22;10605;52.968;8.844;2022-07-01T09:07:58;19.10;99.90
20891;DHT22;10605;52.968;8.844;2022-07-01T09:10:25;18.80;99.90
20891;DHT22;10605;52.968;8.844;2022-07-01T09:12:51;18.80;99.90
20891;DHT22;10605;52.968;8.844;2022-07-01T09:15:20;18.80;99.90
20891;DHT22;10605;52.968;8.844;2022-07-01T09:17:46;18.90;99.90
20891;DHT22;10605;52.968;8.844;2022-07-01T09:20:29;19.20;99.90
20891;DHT22;10605;52.968;8.844;2022-07-01T09:25:31;19.70;99.90
20891;DHT22;10605;52.968;8.844;2022-07-01T09:28:14;19.80;99.90
20891;DHT22;10605;52.968;8.844;2022-07-01T09:30:46;20.00;99.90
20891;DHT22;10605;52.968;8.844;2022-07-01T09:35:40;20.30;99.90
20891;DHT22;10605;52.968;8.844;2022-07-01T09:38:07;20.20;99.90
20891;DHT22;10605;52.968;8.844;2022-07-01T09:40:53;20.20;99.90
20891;DHT22;10605;52.968;8.844;2022-07-01T09:43:39;19.90;99.90
20891;DHT22;10605;52.968;8.844;2022-07-01T09:46:10;19.70;99.90
20891;DHT22;10605;52.968;8.844;2022-07-01T09:51:03;19.70;99.90
20891;DHT22;10605;52.968;8.844;2022-07-01T09:53:29;19.80;99.90
20891;DHT22;10605;52.968;8.844;2022-07-01T09:55:55;20.30;99.90
20891;DHT22;10605;52.968;8.844;2022-07-01T10:01:18;20.30;99.90
20891;DHT22;10605;52.968;8.844;2022-07-01T10:04:06;20.40;99.90
20891;DHT22;10605;52.968;8.844;2022-07-01T10:06:54;20.40;99.90
20891;DHT22;10605;52.968;8.844;2022-07-01T10:12:38;20.40;99.90
20891;DHT22;10605;52.968;8.844;2022-07-01T10:15:08;20.50;99.90
20891;DHT22;10605;52.968;8.844;2022-07-01T10:20:51;20.40;99.90
20891;DHT22;10605;52.968;8.844;2022-07-01T10:23:48;20.50;99.90
20891;DHT22;10605;52.968;8.844;2022-07-01T10:26:29;20.40;99.90
20891;DHT22;10605;52.968;8.844;2022-07-01T10:28:55;20.60;99.90
20891;DHT22;10605;52.968;8.844;2022-07-01T10:31:55;20.60;99.90
20891;DHT22;10605;52.968;8.844;2022-07-01T10:34:34;21.10;99.90
20891;DHT22;10605;52.968;8.844;2022-07-01T10:37:15;20.90;99.90
20891;DHT22;10605;52.968;8.844;2022-07-01T10:40:08;20.70;99.90
20891;DHT22;10605;52.968;8.844;2022-07-01T10:43:01;20.90;99.90
20891;DHT22;10605;52.968;8.844;2022-07-01T10:45:26;21.20;99.90
20891;DHT22;10605;52.968;8.844;2022-07-01T10:48:17;21.20;99.90
20891;DHT22;10605;52.968;8.844;2022-07-01T10:50:46;21.60;99.90
20891;DHT22;10605;52.968;8.844;2022-07-01T10:53:16;21.90;99.90
20891;DHT22;10605;52.968;8.844;2022-07-01T10:56:23;22.30;99.90
20891;DHT22;10605;52.968;8.844;2022-07-01T10:59:30;23.10;99.90
20891;DHT22;10605;52.968;8.844;2022-07-01T11:02:16;23.90;99.90
20891;DHT22;10605;52.968;8.844;2022-07-01T11:05:19;25.40;99.90
20891;DHT22;10605;52.968;8.844;2022-07-01T11:08:16;26.90;99.90
20891;DHT22;10605;52.968;8.844;2022-07-01T11:10:42;27.40;99.90
20891;DHT22;10605;52.968;8.844;2022-07-01T11:19:57;28.30;99.90
20891;DHT22;10605;52.968;8.844;2022-07-01T11:25:59;29.00;99.90
20891;DHT22;10605;52.968;8.844;2022-07-01T11:28:46;28.40;99.90
20891;DHT22;10605;52.968;8.844;2022-07-01T11:31:33;28.80;99.10
20891;DHT22;10605;52.968;8.844;2022-07-01T11:37:37;28.50;97.10
20891;DHT22;10605;52.968;8.844;2022-07-01T11:43:49;28.60;93.50
20891;DHT22;10605;52.968;8.844;2022-07-01T11:46:27;29.50;93.30
20891;DHT22;10605;52.968;8.844;2022-07-01T11:48:58;29.30;91.70
20891;DHT22;10605;52.968;8.844;2022-07-01T11:51:27;28.50;91.40
20891;DHT22;10605;52.968;8.844;2022-07-01T11:53:59;27.80;91.80
20891;DHT22;10605;52.968;8.844;2022-07-01T11:56:36;27.80;94.30
20891;DHT22;10605;52.968;8.844;2022-07-01T12:02:22;31.30;90.60
20891;DHT22;10605;52.968;8.844;2022-07-01T12:08:07;32.30;79.70
20891;DHT22;10605;52.968;8.844;2022-07-01T12:11:04;31.50;73.80
20891;DHT22;10605;52.968;8.844;2022-07-01T12:13:56;29.90;76.60
20891;DHT22;10605;52.968;8.844;2022-07-01T12:16:44;32.60;79.60
20891;DHT22;10605;52.968;8.844;2022-07-01T12:19:37;32.60;73.10
20891;DHT22;10605;52.968;8.844;2022-07-01T12:25:34;29.50;82.50
20891;DHT22;10605;52.968;8.844;2022-07-01T12:38:15;25.90;90.10
20891;DHT22;10605;52.968;8.844;2022-07-01T12:40:41;25.90;91.10
20891;DHT22;10605;52.968;8.844;2022-07-01T12:43:41;25.70;91.50
20891;DHT22;10605;52.968;8.844;2022-07-01T12:46:07;25.20;91.50
20891;DHT22;10605;52.968;8.844;2022-07-01T12:48:55;25.00;92.00
20891;DHT22;10605;52.968;8.844;2022-07-01T12:51:50;24.90;92.10
20891;DHT22;10605;52.968;8.844;2022-07-01T12:54:57;25.20;91.20
20891;DHT22;10605;52.968;8.844;2022-07-01T12:57:49;25.20;91.80
20891;DHT22;10605;52.968;8.844;2022-07-01T13:00:47;25.80;91.00
20891;DHT22;10605;52.968;8.844;2022-07-01T13:03:30;25.60;92.00
20891;DHT22;10605;52.968;8.844;2022-07-01T13:05:56;25.50;90.20
20891;DHT22;10605;52.968;8.844;2022-07-01T13:08:22;25.50;90.10
20891;DHT22;10605;52.968;8.844;2022-07-01T13:10:48;25.30;90.60
20891;DHT22;10605;52.968;8.844;2022-07-01T13:13:17;24.70;90.80
20891;DHT22;10605;52.968;8.844;2022-07-01T13:15:55;24.70;92.20
20891;DHT22;10605;52.968;8.844;2022-07-01T13:18:27;25.20;92.70
20891;DHT22;10605;52.968;8.844;2022-07-01T13:28:23;25.80;92.40
20891;DHT22;10605;52.968;8.844;2022-07-01T13:30:58;25.50;92.50
20891;DHT22;10605;52.968;8.844;2022-07-01T13:33:46;24.80;93.80
20891;DHT22;10605;52.968;8.844;2022-07-01T13:36:21;24.40;94.50
20891;DHT22;10605;52.968;8.844;2022-07-01T13:42:47;23.70;95.40
20891;DHT22;10605;52.968;8.844;2022-07-01T13:45:45;23.50;95.60
20891;DHT22;10605;52.968;8.844;2022-07-01T13:48:14;23.50;96.10
20891;DHT22;10605;52.968;8.844;2022-07-01T13:53:51;23.30;97.60
20891;DHT22;10605;52.968;8.844;2022-07-01T13:56:20;23.60;97.60
20891;DHT22;10605;52.968;8.844;2022-07-01T13:58:52;23.70;96.50
20891;DHT22;10605;52.968;8.844;2022-07-01T14:01:34;24.60;96.20
20891;DHT22;10605;52.968;8.844;2022-07-01T14:04:35;25.10;96.20
20891;DHT22;10605;52.968;8.844;2022-07-01T14:07:12;24.50;94.20
20891;DHT22;10605;52.968;8.844;2022-07-01T14:09:40;24.90;94.30
20891;DHT22;10605;52.968;8.844;2022-07-01T14:12:14;25.60;94.80
20891;DHT22;10605;52.968;8.844;2022-07-01T14:17:54;25.90;93.10
20891;DHT22;10605;52.968;8.844;2022-07-01T14:20:51;25.70;92.70
20891;DHT22;10605;52.968;8.844;2022-07-01T14:23:56;25.10;93.40
20891;DHT22;10605;52.968;8.844;2022-07-01T14:30:06;24.10;93.70
20891;DHT22;10605;52.968;8.844;2022-07-01T14:32:42;23.70;94.80
20891;DHT22;10605;52.968;8.844;2022-07-01T14:35:10;23.70;94.70
20891;DHT22;10605;52.968;8.844;2022-07-01T14:37:59;23.50;95.10
20891;DHT22;10605;52.968;8.844;2022-07-01T14:40:37;23.20;97.30
20891;DHT22;10605;52.968;8.844;2022-07-01T14:43:03;23.30;98.00
20891;DHT22;10605;52.968;8.844;2022-07-01T14:45:44;23.30;96.20
20891;DHT22;10605;52.968;8.844;2022-07-01T14:48:50;23.50;98.80
20891;DHT22;10605;52.968;8.844;2022-07-01T14:51:33;23.70;97.10
20891;DHT22;10605;52.968;8.844;2022-07-01T14:56:50;23.40;97.10
20891;DHT22;10605;52.968;8.844;2022-07-01T14:59:38;23.60;97.80
20891;DHT22;10605;52.968;8.844;2022-07-01T15:05:26;24.70;94.50
20891;DHT22;10605;52.968;8.844;2022-07-01T15:07:58;25.20;93.20
20891;DHT22;10605;52.968;8.844;2022-07-01T15:10:35;25.80;92.20
20891;DHT22;10605;52.968;8.844;2022-07-01T15:13:16;25.80;92.30
20891;DHT22;10605;52.968;8.844;2022-07-01T15:15:41;25.70;91.70
20891;DHT22;10605;52.968;8.844;2022-07-01T15:18:26;25.80;94.00
20891;DHT22;10605;52.968;8.844;2022-07-01T15:21:24;25.50;91.80
20891;DHT22;10605;52.968;8.844;2022-07-01T15:24:10;25.00;92.90
20891;DHT22;10605;52.968;8.844;2022-07-01T15:26:44;24.30;92.80
20891;DHT22;10605;52.968;8.844;2022-07-01T15:29:33;24.50;93.50
20891;DHT22;10605;52.968;8.844;2022-07-01T15:32:25;24.80;92.60
20891;DHT22;10605;52.968;8.844;2022-07-01T15:35:02;25.10;94.30
20891;DHT22;10605;52.968;8.844;2022-07-01T15:37:44;25.30;92.60
20891;DHT22;10605;52.968;8.844;2022-07-01T15:40:25;25.50;92.10
20891;DHT22;10605;52.968;8.844;2022-07-01T15:42:51;25.80;92.60
20891;DHT22;10605;52.968;8.844;2022-07-01T15:45:48;25.80;92.70
20891;DHT22;10605;52.968;8.844;2022-07-01T15:48:39;25.20;91.50
20891;DHT22;10605;52.968;8.844;2022-07-01T15:51:45;25.40;91.40
20891;DHT22;10605;52.968;8.844;2022-07-01T15:54:16;25.10;93.00
20891;DHT22;10605;52.968;8.844;2022-07-01T15:56:45;25.20;91.20
20891;DHT22;10605;52.968;8.844;2022-07-01T15:59:19;24.50;92.50
20891;DHT22;10605;52.968;8.844;2022-07-01T16:01:52;24.20;93.30
20891;DHT22;10605;52.968;8.844;2022-07-01T16:04:21;24.40;94.10
20891;DHT22;10605;52.968;8.844;2022-07-01T16:10:40;24.40;93.40
20891;DHT22;10605;52.968;8.844;2022-07-01T16:20:46;23.90;94.70
20891;DHT22;10605;52.968;8.844;2022-07-01T16:23:40;23.90;95.00
20891;DHT22;10605;52.968;8.844;2022-07-01T16:26:12;23.70;94.90
20891;DHT22;10605;52.968;8.844;2022-07-01T16:28:53;23.50;94.40
20891;DHT22;10605;52.968;8.844;2022-07-01T16:32:00;23.40;94.40
20891;DHT22;10605;52.968;8.844;2022-07-01T16:35:02;23.30;95.60
20891;DHT22;10605;52.968;8.844;2022-07-01T16:47:40;23.40;94.20
20891;DHT22;10605;52.968;8.844;2022-07-01T16:50:59;23.50;93.50
20891;DHT22;10605;52.968;8.844;2022-07-01T16:53:48;23.60;94.80
20891;DHT22;10605;52.968;8.844;2022-07-01T16:56:38;23.80;94.40
20891;DHT22;10605;52.968;8.844;2022-07-01T16:59:25;23.70;93.60
20891;DHT22;10605;52.968;8.844;2022-07-01T17:01:59;23.70;93.30
20891;DHT22;10605;52.968;8.844;2022-07-01T17:04:30;23.50;92.70
20891;DHT22;10605;52.968;8.844;2022-07-01T17:07:27;23.50;93.60
20891;DHT22;10605;52.968;8.844;2022-07-01T17:09:59;23.20;92.30
20891;DHT22;10605;52.968;8.844;2022-07-01T17:15:53;23.10;94.20
20891;DHT22;10605;52.968;8.844;2022-07-01T17:18:39;22.70;95.20
20891;DHT22;10605;52.968;8.844;2022-07-01T17:21:38;22.60;94.50
20891;DHT22;10605;52.968;8.844;2022-07-01T17:24:36;22.70;95.70
20891;DHT22;10605;52.968;8.844;2022-07-01T17:33:29;22.60;96.20
20891;DHT22;10605;52.968;8.844;2022-07-01T17:36:24;22.70;95.50
20891;DHT22;10605;52.968;8.844;2022-07-01T17:39:05;22.80;95.60
20891;DHT22;10605;52.968;8.844;2022-07-01T17:44:40;22.80;95.30
20891;DHT22;10605;52.968;8.844;2022-07-01T17:47:15;22.90;96.20
20891;DHT22;10605;52.968;8.844;2022-07-01T17:50:04;22.70;96.10
20891;DHT22;10605;52.968;8.844;2022-07-01T17:52:33;22.60;97.00
20891;DHT22;10605;52.968;8.844;2022-07-01T17:55:01;22.50;97.80
20891;DHT22;10605;52.968;8.844;2022-07-01T17:58:10;22.50;98.80